• Join FlightAware (Why Join?)
  • Login
  • US Flag GB Flag 
21:44 EDT


 

Airport Tracker/Info


-or-


 

Live Flight TrackerFlight Track Log ✈ N465TP ✈ 06-Feb-2014 ✈ KEKS - KCOD

Flight Track Log - Related Links

Times and Time Zones

All times are in EST time to prevent confusion due to time zone crossing. See the N465TP flight status page for this flight to view local times or setup timezone preferences in your user account.

Time Position Orientation Groundspeed Altitude Reporting Facility
EST Latitude Longitude Course Direction KTS MPH feet Rate Location/Type
18:12 45.1236 -111.1806 141° Southeast 227 261 16,700  Level Salt Lake Center
18:12 45.1200 -111.1764 141° Southeast 228 262 16,800 480 Climbing Salt Lake Center
18:12 45.1144 -111.1450 104° East 239 275 16,900 840 Climbing Salt Lake Center
18:13 45.1017 -111.0767 105° East 254 292 17,600 960 Climbing Salt Lake Center
18:13 45.0942 -111.0522 113° Southeast 264 304 17,800 840 Climbing Salt Lake Center
18:14 45.0803 -110.9822 106° East 261 300 18,500 900 Climbing Salt Lake Center
18:14 45.0719 -110.9511 111° Southeast 269 310 18,700 480 Climbing Salt Lake Center
18:15 45.0578 -110.8822 106° East 275 316 19,000 240 Climbing Salt Lake Center
18:15 45.0481 -110.8444 110° East 278 320 19,000  Level Salt Lake Center
18:16 45.0311 -110.7564 105° East 298 343 19,000  Level Salt Lake Center
18:16 45.0217 -110.7269 114° Southeast 300 345 19,000  Level Salt Lake Center
18:17 45.0064 -110.6447 105° East 307 353 19,000  Level Salt Lake Center
18:17 44.9942 -110.5975 110° East 313 360 19,000  Level Salt Lake Center
18:18 44.9786 -110.5183 105° East 302 348 19,000  Level Salt Lake Center
18:18 44.9719 -110.4997 117° Southeast 308 354 19,000  Level Salt Lake Center
18:19 44.9525 -110.4069 106° East 309 356 19,000  Level Salt Lake Center
18:19 44.9458 -110.3853 113° Southeast 307 353 19,000  Level Salt Lake Center
18:20 44.9253 -110.2786 105° East 306 352 19,000  Level Salt Lake Center
18:20 44.9214 -110.2697 122° Southeast 307 353 19,000  Level Salt Lake Center
18:21 44.8967 -110.1547 107° East 309 356 19,000  Level Salt Lake Center
18:22 44.8694 -110.0378 108° East 311 358 19,000  Level Salt Lake Center
18:23 44.8428 -109.9236 108° East 310 357 19,000  Level Salt Lake Center
18:24 44.8181 -109.8089 107° East 311 358 19,000  Level Salt Lake Center
18:24 44.8178 -109.8089 180° South 311 358 19,000 -300 Level Salt Lake Center
18:25 44.7811 -109.7008 116° Southeast 308 354 18,700 -300 Descending Salt Lake Center
18:25 44.7831 -109.6989 35° Northeast 309 356 18,700 -780 Level Salt Lake Center
18:26 44.7375 -109.5967 122° Southeast 307 353 17,900 -840 Descending Salt Lake Center